sensor_id;sensor_type;location;lat;lon;timestamp;P1;durP1;ratioP1;P2;durP2;ratioP2
13108;SDS011;6620;53.734;11.510;2022-10-31T00:01:18;4.38;;;3.33;;
13108;SDS011;6620;53.734;11.510;2022-10-31T00:03:44;6.88;;;3.53;;
13108;SDS011;6620;53.734;11.510;2022-10-31T00:06:09;6.00;;;3.30;;
13108;SDS011;6620;53.734;11.510;2022-10-31T00:08:34;8.33;;;4.53;;
13108;SDS011;6620;53.734;11.510;2022-10-31T00:10:59;5.40;;;3.17;;
13108;SDS011;6620;53.734;11.510;2022-10-31T00:13:24;7.15;;;3.17;;
13108;SDS011;6620;53.734;11.510;2022-10-31T00:15:50;5.43;;;3.17;;
13108;SDS011;6620;53.734;11.510;2022-10-31T00:18:15;4.47;;;3.20;;
13108;SDS011;6620;53.734;11.510;2022-10-31T00:20:40;4.77;;;2.67;;
13108;SDS011;6620;53.734;11.510;2022-10-31T00:23:06;7.05;;;2.90;;
13108;SDS011;6620;53.734;11.510;2022-10-31T00:25:35;6.63;;;3.20;;
13108;SDS011;6620;53.734;11.510;2022-10-31T00:28:01;3.60;;;2.60;;
13108;SDS011;6620;53.734;11.510;2022-10-31T00:30:26;3.30;;;2.50;;
13108;SDS011;6620;53.734;11.510;2022-10-31T00:32:51;4.60;;;2.87;;
13108;SDS011;6620;53.734;11.510;2022-10-31T00:35:16;5.03;;;2.47;;
13108;SDS011;6620;53.734;11.510;2022-10-31T00:37:42;4.03;;;2.15;;
13108;SDS011;6620;53.734;11.510;2022-10-31T00:40:07;2.55;;;2.10;;
13108;SDS011;6620;53.734;11.510;2022-10-31T00:42:32;5.07;;;2.50;;
13108;SDS011;6620;53.734;11.510;2022-10-31T00:44:58;2.50;;;2.30;;
13108;SDS011;6620;53.734;11.510;2022-10-31T00:47:23;4.93;;;2.13;;
13108;SDS011;6620;53.734;11.510;2022-10-31T00:49:48;2.77;;;2.07;;
13108;SDS011;6620;53.734;11.510;2022-10-31T00:52:13;2.30;;;2.10;;
13108;SDS011;6620;53.734;11.510;2022-10-31T00:54:38;2.47;;;2.28;;
13108;SDS011;6620;53.734;11.510;2022-10-31T00:57:04;2.33;;;2.13;;
13108;SDS011;6620;53.734;11.510;2022-10-31T00:59:29;2.22;;;2.03;;
13108;SDS011;6620;53.734;11.510;2022-10-31T01:01:54;3.50;;;1.80;;
13108;SDS011;6620;53.734;11.510;2022-10-31T01:04:19;2.50;;;2.00;;
13108;SDS011;6620;53.734;11.510;2022-10-31T01:06:44;3.93;;;2.20;;
13108;SDS011;6620;53.734;11.510;2022-10-31T01:09:09;2.27;;;2.07;;
13108;SDS011;6620;53.734;11.510;2022-10-31T01:11:35;1.97;;;1.80;;
13108;SDS011;6620;53.734;11.510;2022-10-31T01:14:00;2.33;;;2.20;;
13108;SDS011;6620;53.734;11.510;2022-10-31T01:16:26;2.67;;;2.10;;
13108;SDS011;6620;53.734;11.510;2022-10-31T01:18:51;2.85;;;2.38;;
13108;SDS011;6620;53.734;11.510;2022-10-31T01:23:42;2.53;;;2.22;;
13108;SDS011;6620;53.734;11.510;2022-10-31T01:26:18;6.07;;;2.08;;
13108;SDS011;6620;53.734;11.510;2022-10-31T01:28:45;3.50;;;2.30;;
13108;SDS011;6620;53.734;11.510;2022-10-31T01:31:11;2.80;;;2.20;;
13108;SDS011;6620;53.734;11.510;2022-10-31T01:33:37;4.05;;;2.30;;
13108;SDS011;6620;53.734;11.510;2022-10-31T01:36:12;1.98;;;1.88;;
13108;SDS011;6620;53.734;11.510;2022-10-31T01:38:38;3.45;;;2.35;;
13108;SDS011;6620;53.734;11.510;2022-10-31T01:41:03;3.63;;;2.03;;
13108;SDS011;6620;53.734;11.510;2022-10-31T01:43:41;3.97;;;2.50;;
13108;SDS011;6620;53.734;11.510;2022-10-31T01:46:06;4.53;;;2.78;;
13108;SDS011;6620;53.734;11.510;2022-10-31T01:48:31;5.83;;;2.73;;
13108;SDS011;6620;53.734;11.510;2022-10-31T01:50:57;6.87;;;3.20;;
13108;SDS011;6620;53.734;11.510;2022-10-31T01:53:22;7.07;;;3.80;;
13108;SDS011;6620;53.734;11.510;2022-10-31T01:55:48;7.95;;;3.63;;
13108;SDS011;6620;53.734;11.510;2022-10-31T01:58:14;6.80;;;3.73;;
13108;SDS011;6620;53.734;11.510;2022-10-31T02:00:42;9.38;;;3.28;;
13108;SDS011;6620;53.734;11.510;2022-10-31T02:03:08;11.63;;;4.40;;
13108;SDS011;6620;53.734;11.510;2022-10-31T02:05:33;6.25;;;4.15;;
13108;SDS011;6620;53.734;11.510;2022-10-31T02:08:03;6.47;;;4.32;;
13108;SDS011;6620;53.734;11.510;2022-10-31T02:10:30;6.00;;;3.83;;
13108;SDS011;6620;53.734;11.510;2022-10-31T02:12:56;8.80;;;4.50;;
13108;SDS011;6620;53.734;11.510;2022-10-31T02:15:23;5.93;;;4.07;;
13108;SDS011;6620;53.734;11.510;2022-10-31T02:17:48;7.40;;;4.57;;
13108;SDS011;6620;53.734;11.510;2022-10-31T02:20:20;12.05;;;4.15;;
13108;SDS011;6620;53.734;11.510;2022-10-31T02:28:16;8.93;;;5.18;;
13108;SDS011;6620;53.734;11.510;2022-10-31T02:31:01;8.55;;;4.35;;
13108;SDS011;6620;53.734;11.510;2022-10-31T02:33:34;7.38;;;4.25;;
13108;SDS011;6620;53.734;11.510;2022-10-31T02:36:04;7.22;;;4.43;;
13108;SDS011;6620;53.734;11.510;2022-10-31T02:38:38;19.42;;;4.80;;
13108;SDS011;6620;53.734;11.510;2022-10-31T02:41:15;9.35;;;4.97;;
13108;SDS011;6620;53.734;11.510;2022-10-31T02:43:54;11.30;;;4.82;;
13108;SDS011;6620;53.734;11.510;2022-10-31T02:46:25;8.23;;;5.07;;
13108;SDS011;6620;53.734;11.510;2022-10-31T02:48:53;8.38;;;4.22;;
13108;SDS011;6620;53.734;11.510;2022-10-31T02:51:19;7.78;;;5.05;;
13108;SDS011;6620;53.734;11.510;2022-10-31T02:53:44;5.30;;;4.75;;
13108;SDS011;6620;53.734;11.510;2022-10-31T02:56:14;8.40;;;4.73;;
13108;SDS011;6620;53.734;11.510;2022-10-31T02:58:41;7.68;;;4.53;;
13108;SDS011;6620;53.734;11.510;2022-10-31T03:01:22;8.70;;;4.63;;
13108;SDS011;6620;53.734;11.510;2022-10-31T03:04:11;5.90;;;4.45;;
13108;SDS011;6620;53.734;11.510;2022-10-31T03:06:45;7.65;;;4.38;;
13108;SDS011;6620;53.734;11.510;2022-10-31T03:11:46;9.40;;;4.65;;
13108;SDS011;6620;53.734;11.510;2022-10-31T03:14:18;8.32;;;4.47;;
13108;SDS011;6620;53.734;11.510;2022-10-31T03:16:46;7.78;;;4.03;;
13108;SDS011;6620;53.734;11.510;2022-10-31T03:19:12;6.93;;;4.57;;
13108;SDS011;6620;53.734;11.510;2022-10-31T03:24:05;8.88;;;4.85;;
13108;SDS011;6620;53.734;11.510;2022-10-31T03:26:31;6.30;;;4.10;;
13108;SDS011;6620;53.734;11.510;2022-10-31T03:29:00;8.73;;;4.05;;
13108;SDS011;6620;53.734;11.510;2022-10-31T03:31:28;5.60;;;3.70;;
13108;SDS011;6620;53.734;11.510;2022-10-31T03:33:54;5.93;;;4.25;;
13108;SDS011;6620;53.734;11.510;2022-10-31T03:36:21;5.35;;;3.70;;
13108;SDS011;6620;53.734;11.510;2022-10-31T03:38:47;9.93;;;3.90;;
13108;SDS011;6620;53.734;11.510;2022-10-31T03:41:24;6.22;;;3.97;;
13108;SDS011;6620;53.734;11.510;2022-10-31T03:43:52;5.10;;;3.20;;
13108;SDS011;6620;53.734;11.510;2022-10-31T03:46:19;6.47;;;3.13;;
13108;SDS011;6620;53.734;11.510;2022-10-31T03:48:44;6.80;;;3.17;;
13108;SDS011;6620;53.734;11.510;2022-10-31T03:53:42;3.45;;;3.13;;
13108;SDS011;6620;53.734;11.510;2022-10-31T03:56:11;5.85;;;3.30;;
13108;SDS011;6620;53.734;11.510;2022-10-31T03:59:13;4.53;;;3.03;;
13108;SDS011;6620;53.734;11.510;2022-10-31T04:01:30;3.72;;;2.63;;
13108;SDS011;6620;53.734;11.510;2022-10-31T04:03:57;4.28;;;2.47;;
13108;SDS011;6620;53.734;11.510;2022-10-31T04:06:22;4.78;;;2.80;;
13108;SDS011;6620;53.734;11.510;2022-10-31T04:08:53;9.05;;;3.03;;
13108;SDS011;6620;53.734;11.510;2022-10-31T04:11:21;5.43;;;3.55;;
13108;SDS011;6620;53.734;11.510;2022-10-31T04:13:48;4.95;;;2.58;;
13108;SDS011;6620;53.734;11.510;2022-10-31T04:16:14;5.43;;;3.00;;
13108;SDS011;6620;53.734;11.510;2022-10-31T04:18:40;5.85;;;2.95;;
13108;SDS011;6620;53.734;11.510;2022-10-31T04:21:06;5.33;;;3.63;;
13108;SDS011;6620;53.734;11.510;2022-10-31T04:23:31;4.85;;;3.00;;
13108;SDS011;6620;53.734;11.510;2022-10-31T04:25:57;7.00;;;3.50;;
13108;SDS011;6620;53.734;11.510;2022-10-31T04:28:22;4.15;;;3.28;;
13108;SDS011;6620;53.734;11.510;2022-10-31T04:30:47;4.88;;;3.38;;
13108;SDS011;6620;53.734;11.510;2022-10-31T04:33:13;7.53;;;3.42;;
13108;SDS011;6620;53.734;11.510;2022-10-31T04:35:38;4.30;;;3.80;;
13108;SDS011;6620;53.734;11.510;2022-10-31T04:38:03;7.18;;;3.50;;
13108;SDS011;6620;53.734;11.510;2022-10-31T04:40:28;4.13;;;3.37;;
13108;SDS011;6620;53.734;11.510;2022-10-31T04:42:53;3.43;;;3.13;;
13108;SDS011;6620;53.734;11.510;2022-10-31T04:45:19;10.00;;;4.20;;
13108;SDS011;6620;53.734;11.510;2022-10-31T04:47:45;6.03;;;3.63;;
13108;SDS011;6620;53.734;11.510;2022-10-31T04:50:10;6.13;;;3.43;;
13108;SDS011;6620;53.734;11.510;2022-10-31T04:52:42;6.40;;;3.80;;
13108;SDS011;6620;53.734;11.510;2022-10-31T04:55:07;5.78;;;3.60;;
13108;SDS011;6620;53.734;11.510;2022-10-31T04:57:39;7.13;;;4.07;;
13108;SDS011;6620;53.734;11.510;2022-10-31T05:00:05;5.20;;;4.00;;
13108;SDS011;6620;53.734;11.510;2022-10-31T05:02:30;4.47;;;3.30;;
13108;SDS011;6620;53.734;11.510;2022-10-31T05:04:55;6.97;;;3.73;;
13108;SDS011;6620;53.734;11.510;2022-10-31T05:07:20;5.00;;;3.57;;
13108;SDS011;6620;53.734;11.510;2022-10-31T05:09:45;4.30;;;3.90;;
13108;SDS011;6620;53.734;11.510;2022-10-31T05:12:11;7.27;;;4.03;;
13108;SDS011;6620;53.734;11.510;2022-10-31T05:14:36;5.43;;;3.90;;
13108;SDS011;6620;53.734;11.510;2022-10-31T05:17:01;6.97;;;3.90;;
13108;SDS011;6620;53.734;11.510;2022-10-31T05:19:26;3.97;;;3.53;;
13108;SDS011;6620;53.734;11.510;2022-10-31T05:21:51;5.30;;;3.63;;
13108;SDS011;6620;53.734;11.510;2022-10-31T05:24:16;4.37;;;3.97;;
13108;SDS011;6620;53.734;11.510;2022-10-31T05:26:41;6.43;;;4.23;;
13108;SDS011;6620;53.734;11.510;2022-10-31T05:29:07;7.77;;;4.40;;
13108;SDS011;6620;53.734;11.510;2022-10-31T05:31:32;9.27;;;4.90;;
13108;SDS011;6620;53.734;11.510;2022-10-31T05:33:57;7.97;;;4.83;;
13108;SDS011;6620;53.734;11.510;2022-10-31T05:36:22;10.30;;;5.53;;
13108;SDS011;6620;53.734;11.510;2022-10-31T05:38:47;9.88;;;5.25;;
13108;SDS011;6620;53.734;11.510;2022-10-31T05:41:13;8.75;;;5.72;;
13108;SDS011;6620;53.734;11.510;2022-10-31T05:43:38;8.70;;;5.27;;
13108;SDS011;6620;53.734;11.510;2022-10-31T05:46:03;12.03;;;5.23;;
13108;SDS011;6620;53.734;11.510;2022-10-31T05:48:28;8.10;;;6.05;;
13108;SDS011;6620;53.734;11.510;2022-10-31T05:50:53;11.97;;;6.67;;
13108;SDS011;6620;53.734;11.510;2022-10-31T05:53:19;10.30;;;6.37;;
13108;SDS011;6620;53.734;11.510;2022-10-31T05:55:44;19.40;;;6.95;;
13108;SDS011;6620;53.734;11.510;2022-10-31T05:58:09;10.40;;;7.57;;
13108;SDS011;6620;53.734;11.510;2022-10-31T06:00:35;16.80;;;9.10;;
13108;SDS011;6620;53.734;11.510;2022-10-31T06:03:01;26.55;;;10.60;;
13108;SDS011;6620;53.734;11.510;2022-10-31T06:05:27;11.30;;;7.15;;
13108;SDS011;6620;53.734;11.510;2022-10-31T06:07:52;19.33;;;8.18;;
13108;SDS011;6620;53.734;11.510;2022-10-31T06:10:17;71.05;;;23.92;;
13108;SDS011;6620;53.734;11.510;2022-10-31T06:12:44;60.00;;;20.88;;
13108;SDS011;6620;53.734;11.510;2022-10-31T06:15:09;22.43;;;11.27;;
13108;SDS011;6620;53.734;11.510;2022-10-31T06:17:35;31.17;;;13.25;;
13108;SDS011;6620;53.734;11.510;2022-10-31T06:20:00;27.45;;;14.23;;
13108;SDS011;6620;53.734;11.510;2022-10-31T06:22:25;53.85;;;21.77;;
13108;SDS011;6620;53.734;11.510;2022-10-31T06:24:50;166.10;;;32.67;;
13108;SDS011;6620;53.734;11.510;2022-10-31T06:27:16;39.45;;;18.52;;
13108;SDS011;6620;53.734;11.510;2022-10-31T06:29:41;58.90;;;21.50;;
13108;SDS011;6620;53.734;11.510;2022-10-31T06:32:08;251.10;;;37.17;;
13108;SDS011;6620;53.734;11.510;2022-10-31T06:34:34;19.50;;;12.80;;
13108;SDS011;6620;53.734;11.510;2022-10-31T06:36:59;384.90;;;52.03;;
13108;SDS011;6620;53.734;11.510;2022-10-31T06:39:24;316.90;;;48.77;;
13108;SDS011;6620;53.734;11.510;2022-10-31T06:41:50;101.43;;;24.57;;
13108;SDS011;6620;53.734;11.510;2022-10-31T06:44:15;327.37;;;47.43;;
13108;SDS011;6620;53.734;11.510;2022-10-31T06:46:40;55.30;;;18.97;;
13108;SDS011;6620;53.734;11.510;2022-10-31T06:49:05;25.55;;;16.38;;
13108;SDS011;6620;53.734;11.510;2022-10-31T06:51:30;84.17;;;24.97;;
13108;SDS011;6620;53.734;11.510;2022-10-31T06:53:55;392.27;;;47.77;;
13108;SDS011;6620;53.734;11.510;2022-10-31T06:56:21;206.00;;;34.20;;
13108;SDS011;6620;53.734;11.510;2022-10-31T06:58:46;158.10;;;33.03;;
13108;SDS011;6620;53.734;11.510;2022-10-31T07:01:11;52.77;;;19.97;;
13108;SDS011;6620;53.734;11.510;2022-10-31T07:03:36;365.50;;;41.87;;
13108;SDS011;6620;53.734;11.510;2022-10-31T07:06:01;110.57;;;26.10;;
13108;SDS011;6620;53.734;11.510;2022-10-31T07:08:27;58.17;;;23.52;;
13108;SDS011;6620;53.734;11.510;2022-10-31T07:10:53;38.20;;;21.67;;
13108;SDS011;6620;53.734;11.510;2022-10-31T07:13:18;33.83;;;19.13;;
13108;SDS011;6620;53.734;11.510;2022-10-31T07:15:46;27.50;;;18.15;;
13108;SDS011;6620;53.734;11.510;2022-10-31T07:18:11;194.20;;;34.63;;
13108;SDS011;6620;53.734;11.510;2022-10-31T07:20:37;32.47;;;20.38;;
13108;SDS011;6620;53.734;11.510;2022-10-31T07:23:02;242.73;;;38.97;;
13108;SDS011;6620;53.734;11.510;2022-10-31T07:25:28;30.95;;;20.10;;
13108;SDS011;6620;53.734;11.510;2022-10-31T07:27:53;30.73;;;21.30;;
13108;SDS011;6620;53.734;11.510;2022-10-31T07:30:18;30.03;;;21.17;;
13108;SDS011;6620;53.734;11.510;2022-10-31T07:32:44;32.50;;;21.77;;
13108;SDS011;6620;53.734;11.510;2022-10-31T07:35:11;37.35;;;23.30;;
13108;SDS011;6620;53.734;11.510;2022-10-31T07:37:36;34.65;;;23.17;;
13108;SDS011;6620;53.734;11.510;2022-10-31T07:40:02;37.03;;;26.00;;
13108;SDS011;6620;53.734;11.510;2022-10-31T07:42:28;44.58;;;28.77;;
13108;SDS011;6620;53.734;11.510;2022-10-31T07:44:53;219.37;;;45.07;;
13108;SDS011;6620;53.734;11.510;2022-10-31T07:47:18;47.80;;;27.80;;
13108;SDS011;6620;53.734;11.510;2022-10-31T07:49:43;48.33;;;30.63;;
13108;SDS011;6620;53.734;11.510;2022-10-31T07:52:08;54.60;;;32.63;;
13108;SDS011;6620;53.734;11.510;2022-10-31T07:54:34;153.67;;;45.73;;
13108;SDS011;6620;53.734;11.510;2022-10-31T07:56:59;136.47;;;40.90;;
13108;SDS011;6620;53.734;11.510;2022-10-31T07:59:24;61.33;;;34.17;;
13108;SDS011;6620;53.734;11.510;2022-10-31T08:01:50;58.88;;;35.03;;
13108;SDS011;6620;53.734;11.510;2022-10-31T08:04:15;62.40;;;33.15;;
13108;SDS011;6620;53.734;11.510;2022-10-31T08:06:41;68.47;;;37.53;;
13108;SDS011;6620;53.734;11.510;2022-10-31T08:09:06;270.10;;;62.87;;
13108;SDS011;6620;53.734;11.510;2022-10-31T08:11:31;130.80;;;47.55;;
13108;SDS011;6620;53.734;11.510;2022-10-31T08:13:56;71.50;;;37.50;;
13108;SDS011;6620;53.734;11.510;2022-10-31T08:16:21;56.20;;;31.97;;
13108;SDS011;6620;53.734;11.510;2022-10-31T08:18:47;63.10;;;32.90;;
13108;SDS011;6620;53.734;11.510;2022-10-31T08:21:12;119.63;;;43.22;;
13108;SDS011;6620;53.734;11.510;2022-10-31T08:23:37;127.43;;;47.10;;
13108;SDS011;6620;53.734;11.510;2022-10-31T08:26:03;77.17;;;37.03;;
13108;SDS011;6620;53.734;11.510;2022-10-31T08:28:28;95.57;;;41.30;;
13108;SDS011;6620;53.734;11.510;2022-10-31T08:30:54;71.53;;;37.20;;
13108;SDS011;6620;53.734;11.510;2022-10-31T08:33:19;80.50;;;40.87;;
13108;SDS011;6620;53.734;11.510;2022-10-31T08:35:44;200.70;;;50.13;;
13108;SDS011;6620;53.734;11.510;2022-10-31T08:38:10;90.78;;;40.67;;
13108;SDS011;6620;53.734;11.510;2022-10-31T08:40:36;148.02;;;43.10;;
13108;SDS011;6620;53.734;11.510;2022-10-31T08:43:10;135.80;;;46.50;;
13108;SDS011;6620;53.734;11.510;2022-10-31T08:45:36;141.18;;;44.42;;
13108;SDS011;6620;53.734;11.510;2022-10-31T08:48:05;76.23;;;38.00;;
13108;SDS011;6620;53.734;11.510;2022-10-31T08:50:31;66.30;;;34.40;;
13108;SDS011;6620;53.734;11.510;2022-10-31T08:53:00;257.00;;;55.10;;
13108;SDS011;6620;53.734;11.510;2022-10-31T08:55:26;105.78;;;41.95;;
13108;SDS011;6620;53.734;11.510;2022-10-31T08:57:55;150.53;;;46.80;;
13108;SDS011;6620;53.734;11.510;2022-10-31T09:00:20;131.70;;;41.05;;
13108;SDS011;6620;53.734;11.510;2022-10-31T09:02:46;157.33;;;46.30;;
13108;SDS011;6620;53.734;11.510;2022-10-31T09:05:11;92.57;;;40.20;;
13108;SDS011;6620;53.734;11.510;2022-10-31T09:07:36;153.27;;;44.37;;
13108;SDS011;6620;53.734;11.510;2022-10-31T09:10:01;284.95;;;58.55;;
13108;SDS011;6620;53.734;11.510;2022-10-31T09:12:26;80.07;;;37.63;;
13108;SDS011;6620;53.734;11.510;2022-10-31T09:14:52;125.90;;;42.08;;
13108;SDS011;6620;53.734;11.510;2022-10-31T09:17:17;93.15;;;42.85;;
13108;SDS011;6620;53.734;11.510;2022-10-31T09:19:42;226.87;;;51.33;;
13108;SDS011;6620;53.734;11.510;2022-10-31T09:22:07;79.40;;;39.00;;
13108;SDS011;6620;53.734;11.510;2022-10-31T09:24:32;152.60;;;45.50;;
13108;SDS011;6620;53.734;11.510;2022-10-31T09:26:58;98.53;;;37.30;;
13108;SDS011;6620;53.734;11.510;2022-10-31T09:29:23;77.03;;;35.80;;
13108;SDS011;6620;53.734;11.510;2022-10-31T09:31:48;234.67;;;45.27;;
13108;SDS011;6620;53.734;11.510;2022-10-31T09:34:13;79.93;;;34.50;;
13108;SDS011;6620;53.734;11.510;2022-10-31T09:36:38;70.93;;;33.23;;
13108;SDS011;6620;53.734;11.510;2022-10-31T09:39:04;109.07;;;38.28;;
13108;SDS011;6620;53.734;11.510;2022-10-31T09:41:37;75.35;;;33.83;;
13108;SDS011;6620;53.734;11.510;2022-10-31T09:51:45;76.05;;;34.30;;
13108;SDS011;6620;53.734;11.510;2022-10-31T09:54:26;79.93;;;34.95;;
13108;SDS011;6620;53.734;11.510;2022-10-31T09:56:53;161.80;;;42.03;;
13108;SDS011;6620;53.734;11.510;2022-10-31T09:59:25;123.63;;;40.28;;
13108;SDS011;6620;53.734;11.510;2022-10-31T10:02:02;81.30;;;34.67;;
13108;SDS011;6620;53.734;11.510;2022-10-31T10:07:21;122.72;;;41.00;;
13108;SDS011;6620;53.734;11.510;2022-10-31T10:09:47;132.95;;;43.88;;
13108;SDS011;6620;53.734;11.510;2022-10-31T10:17:37;124.72;;;42.83;;
13108;SDS011;6620;53.734;11.510;2022-10-31T10:20:10;156.32;;;43.40;;
13108;SDS011;6620;53.734;11.510;2022-10-31T10:22:46;102.28;;;40.17;;
13108;SDS011;6620;53.734;11.510;2022-10-31T10:27:56;78.50;;;33.88;;
13108;SDS011;6620;53.734;11.510;2022-10-31T10:30:26;91.10;;;38.08;;
13108;SDS011;6620;53.734;11.510;2022-10-31T10:32:57;101.18;;;36.50;;
13108;SDS011;6620;53.734;11.510;2022-10-31T10:35:38;70.28;;;32.58;;
13108;SDS011;6620;53.734;11.510;2022-10-31T10:40:32;76.15;;;32.72;;
13108;SDS011;6620;53.734;11.510;2022-10-31T10:45:42;87.32;;;33.70;;
13108;SDS011;6620;53.734;11.510;2022-10-31T10:50:53;69.10;;;32.90;;
13108;SDS011;6620;53.734;11.510;2022-10-31T10:55:51;66.05;;;32.70;;
13108;SDS011;6620;53.734;11.510;2022-10-31T11:00:44;69.50;;;29.50;;
13108;SDS011;6620;53.734;11.510;2022-10-31T11:03:13;75.82;;;31.90;;
13108;SDS011;6620;53.734;11.510;2022-10-31T11:05:42;68.72;;;31.15;;
13108;SDS011;6620;53.734;11.510;2022-10-31T11:10:35;76.20;;;31.98;;
13108;SDS011;6620;53.734;11.510;2022-10-31T11:15:56;75.32;;;31.92;;
13108;SDS011;6620;53.734;11.510;2022-10-31T11:18:22;58.97;;;29.30;;
13108;SDS011;6620;53.734;11.510;2022-10-31T11:20:53;63.83;;;30.92;;
13108;SDS011;6620;53.734;11.510;2022-10-31T11:23:20;61.20;;;29.70;;
13108;SDS011;6620;53.734;11.510;2022-10-31T11:25:49;71.10;;;31.88;;
13108;SDS011;6620;53.734;11.510;2022-10-31T11:28:15;65.22;;;29.73;;
13108;SDS011;6620;53.734;11.510;2022-10-31T11:30:47;68.67;;;31.47;;
13108;SDS011;6620;53.734;11.510;2022-10-31T11:33:28;61.38;;;28.95;;
13108;SDS011;6620;53.734;11.510;2022-10-31T11:35:54;47.50;;;26.50;;
13108;SDS011;6620;53.734;11.510;2022-10-31T11:38:20;51.30;;;27.02;;
13108;SDS011;6620;53.734;11.510;2022-10-31T11:43:20;57.42;;;27.38;;
13108;SDS011;6620;53.734;11.510;2022-10-31T11:45:46;49.60;;;26.52;;
13108;SDS011;6620;53.734;11.510;2022-10-31T11:48:15;51.90;;;27.20;;
13108;SDS011;6620;53.734;11.510;2022-10-31T11:50:41;66.93;;;29.98;;
13108;SDS011;6620;53.734;11.510;2022-10-31T11:53:16;45.15;;;25.30;;
13108;SDS011;6620;53.734;11.510;2022-10-31T11:55:42;49.78;;;26.23;;
13108;SDS011;6620;53.734;11.510;2022-10-31T11:58:20;49.63;;;26.38;;
13108;SDS011;6620;53.734;11.510;2022-10-31T12:00:50;49.30;;;26.88;;
13108;SDS011;6620;53.734;11.510;2022-10-31T12:05:46;51.40;;;25.93;;
13108;SDS011;6620;53.734;11.510;2022-10-31T12:08:12;57.30;;;28.50;;
13108;SDS011;6620;53.734;11.510;2022-10-31T12:10:41;46.55;;;26.35;;
13108;SDS011;6620;53.734;11.510;2022-10-31T12:13:20;53.67;;;26.05;;
13108;SDS011;6620;53.734;11.510;2022-10-31T12:15:50;55.40;;;26.23;;
13108;SDS011;6620;53.734;11.510;2022-10-31T12:25:50;49.55;;;25.67;;
13108;SDS011;6620;53.734;11.510;2022-10-31T12:31:03;51.58;;;24.58;;
13108;SDS011;6620;53.734;11.510;2022-10-31T12:39:03;44.15;;;23.40;;
13108;SDS011;6620;53.734;11.510;2022-10-31T12:41:51;38.38;;;22.60;;
13108;SDS011;6620;53.734;11.510;2022-10-31T12:47:24;49.10;;;25.08;;
13108;SDS011;6620;53.734;11.510;2022-10-31T12:49:59;39.53;;;22.80;;
13108;SDS011;6620;53.734;11.510;2022-10-31T12:57:37;38.38;;;21.02;;
13108;SDS011;6620;53.734;11.510;2022-10-31T13:00:07;43.00;;;21.60;;
13108;SDS011;6620;53.734;11.510;2022-10-31T13:02:41;50.97;;;23.08;;
13108;SDS011;6620;53.734;11.510;2022-10-31T13:05:14;41.53;;;21.55;;
13108;SDS011;6620;53.734;11.510;2022-10-31T13:07:43;37.42;;;21.55;;
13108;SDS011;6620;53.734;11.510;2022-10-31T13:12:55;37.30;;;21.40;;
13108;SDS011;6620;53.734;11.510;2022-10-31T13:15:22;41.38;;;22.23;;
13108;SDS011;6620;53.734;11.510;2022-10-31T13:17:49;37.65;;;21.33;;
13108;SDS011;6620;53.734;11.510;2022-10-31T13:20:17;34.50;;;20.52;;
13108;SDS011;6620;53.734;11.510;2022-10-31T13:22:45;36.60;;;21.20;;
13108;SDS011;6620;53.734;11.510;2022-10-31T13:25:13;37.15;;;21.85;;
13108;SDS011;6620;53.734;11.510;2022-10-31T13:30:38;35.55;;;20.60;;
13108;SDS011;6620;53.734;11.510;2022-10-31T13:40:45;39.17;;;21.48;;
13108;SDS011;6620;53.734;11.510;2022-10-31T13:45:56;39.10;;;22.80;;
13108;SDS011;6620;53.734;11.510;2022-10-31T13:50:59;39.92;;;21.58;;
13108;SDS011;6620;53.734;11.510;2022-10-31T13:56:13;42.17;;;22.80;;
13108;SDS011;6620;53.734;11.510;2022-10-31T13:58:40;39.05;;;21.27;;
13108;SDS011;6620;53.734;11.510;2022-10-31T14:03:36;39.42;;;20.90;;
13108;SDS011;6620;53.734;11.510;2022-10-31T14:06:02;42.38;;;21.15;;
13108;SDS011;6620;53.734;11.510;2022-10-31T14:08:27;40.67;;;21.75;;
13108;SDS011;6620;53.734;11.510;2022-10-31T14:10:54;46.28;;;21.52;;
13108;SDS011;6620;53.734;11.510;2022-10-31T14:13:22;36.42;;;21.40;;
13108;SDS011;6620;53.734;11.510;2022-10-31T14:15:52;47.20;;;24.05;;
13108;SDS011;6620;53.734;11.510;2022-10-31T14:18:23;41.67;;;22.17;;
13108;SDS011;6620;53.734;11.510;2022-10-31T14:20:49;39.42;;;21.70;;
13108;SDS011;6620;53.734;11.510;2022-10-31T14:26:05;44.50;;;23.08;;
13108;SDS011;6620;53.734;11.510;2022-10-31T14:28:32;44.80;;;22.23;;
13108;SDS011;6620;53.734;11.510;2022-10-31T14:30:58;47.85;;;23.80;;
13108;SDS011;6620;53.734;11.510;2022-10-31T14:33:27;49.70;;;24.63;;
13108;SDS011;6620;53.734;11.510;2022-10-31T14:36:56;47.45;;;24.23;;
13108;SDS011;6620;53.734;11.510;2022-10-31T14:39:02;44.97;;;23.70;;
13108;SDS011;6620;53.734;11.510;2022-10-31T14:51:42;39.25;;;21.65;;
13108;SDS011;6620;53.734;11.510;2022-10-31T14:54:11;39.88;;;21.52;;
13108;SDS011;6620;53.734;11.510;2022-10-31T14:56:40;45.55;;;21.70;;
13108;SDS011;6620;53.734;11.510;2022-10-31T14:59:09;44.60;;;22.88;;
13108;SDS011;6620;53.734;11.510;2022-10-31T15:01:37;39.25;;;22.50;;
13108;SDS011;6620;53.734;11.510;2022-10-31T15:06:40;42.57;;;22.50;;
13108;SDS011;6620;53.734;11.510;2022-10-31T15:09:05;46.10;;;25.13;;
13108;SDS011;6620;53.734;11.510;2022-10-31T15:11:45;40.55;;;22.17;;
13108;SDS011;6620;53.734;11.510;2022-10-31T15:14:17;42.80;;;21.95;;
13108;SDS011;6620;53.734;11.510;2022-10-31T15:16:45;41.90;;;21.38;;
13108;SDS011;6620;53.734;11.510;2022-10-31T15:19:13;37.33;;;21.90;;
13108;SDS011;6620;53.734;11.510;2022-10-31T15:21:41;41.03;;;21.73;;
13108;SDS011;6620;53.734;11.510;2022-10-31T15:24:10;44.30;;;22.15;;
13108;SDS011;6620;53.734;11.510;2022-10-31T15:26:37;40.40;;;21.58;;
13108;SDS011;6620;53.734;11.510;2022-10-31T15:29:05;36.60;;;20.40;;
13108;SDS011;6620;53.734;11.510;2022-10-31T15:31:36;39.90;;;22.02;;
13108;SDS011;6620;53.734;11.510;2022-10-31T15:34:30;39.83;;;21.05;;
13108;SDS011;6620;53.734;11.510;2022-10-31T15:36:49;38.38;;;20.25;;
13108;SDS011;6620;53.734;11.510;2022-10-31T15:39:15;37.90;;;20.40;;
13108;SDS011;6620;53.734;11.510;2022-10-31T15:41:51;34.15;;;18.90;;
13108;SDS011;6620;53.734;11.510;2022-10-31T15:46:52;33.70;;;19.13;;
13108;SDS011;6620;53.734;11.510;2022-10-31T15:49:32;38.53;;;21.48;;
13108;SDS011;6620;53.734;11.510;2022-10-31T15:52:01;40.92;;;20.23;;
13108;SDS011;6620;53.734;11.510;2022-10-31T15:54:27;43.28;;;21.17;;
13108;SDS011;6620;53.734;11.510;2022-10-31T15:56:53;43.13;;;20.60;;
13108;SDS011;6620;53.734;11.510;2022-10-31T15:59:19;45.70;;;21.87;;
13108;SDS011;6620;53.734;11.510;2022-10-31T16:01:53;37.25;;;19.35;;
13108;SDS011;6620;53.734;11.510;2022-10-31T16:04:22;31.40;;;18.75;;
13108;SDS011;6620;53.734;11.510;2022-10-31T16:07:21;37.60;;;19.13;;
13108;SDS011;6620;53.734;11.510;2022-10-31T16:10:00;39.00;;;20.58;;
13108;SDS011;6620;53.734;11.510;2022-10-31T16:12:33;36.22;;;19.55;;
13108;SDS011;6620;53.734;11.510;2022-10-31T16:14:59;38.90;;;19.42;;
13108;SDS011;6620;53.734;11.510;2022-10-31T16:17:24;42.08;;;20.95;;
13108;SDS011;6620;53.734;11.510;2022-10-31T16:19:52;38.03;;;19.13;;
13108;SDS011;6620;53.734;11.510;2022-10-31T16:22:20;34.50;;;19.38;;
13108;SDS011;6620;53.734;11.510;2022-10-31T16:24:46;36.15;;;19.42;;
13108;SDS011;6620;53.734;11.510;2022-10-31T16:27:19;35.65;;;18.50;;
13108;SDS011;6620;53.734;11.510;2022-10-31T16:29:48;38.13;;;20.75;;
13108;SDS011;6620;53.734;11.510;2022-10-31T16:33:19;37.47;;;19.85;;
13108;SDS011;6620;53.734;11.510;2022-10-31T16:37:33;38.60;;;19.40;;
13108;SDS011;6620;53.734;11.510;2022-10-31T16:39:58;35.10;;;18.92;;